Terminal Aerodrome Forecast
Issued by NWS

Home | Current Version | Previous Version | Text Only | Print | Product List | Glossary Off
Versions: 1 2 3 4 5 6 7 8 9 10 11 12 13 14 15 16 17 18 19 20 21 22 23 24

590
FTUS43 KLOT 171040 AAB
TAFDPA
TAF AMD
KDPA 171040Z 1711/1806 27004KT 4SM BR FEW004
      TEMPO 1711/1713 1 1/2SM BR
     FM171300 26007KT P6SM SCT180
     FM171700 24012G18KT P6SM SCT070
     FM172100 24016G24KT P6SM SCT150=

USA.gov is the U.S. government's official web portal to all federal, state and local government web resources and services.